• Join FlightAware (Why Join?)
  • Login
  • US Flag 
09:11PM EDT


 

Airport Tracker/Info


-or-


 

Live Flight TrackerFlight Track Log ✈ CPZ5714 ✈ 19-Aug-2013 ✈ KMSP - KALB

Flight Track Log - Related Links

Times and Time Zones

All times are in EDT time to prevent confusion due to time zone crossing. See the CPZ5714 flight status page for this flight to view local times or setup timezone preferences in your user account.

Time Position Orientation Groundspeed Altitude Reporting Facility
EDT Latitude Longitude Course Direction KTS MPH feet Rate Location/Type
08:40PM 44.8833 -93.1167 70° East 197 227 2,500  Level Minneapolis TRACON
08:40PM 44.8964 -93.0917 54° Northeast 233 268 3,100 2,280 Climbing Minneapolis Center
08:41PM 44.9706 -93.0497 22° Northeast 285 328 6,200 2,940 Climbing Minneapolis Center
08:42PM 45.0322 -92.9800 39° Northeast 294 338 9,200 2,220 Climbing Minneapolis Center
08:43PM 45.0803 -92.4773 68° East  Level FlightAware Approximate
08:43PM 45.0842 -92.8475 61° Northeast 325 374 10,900  Level Minneapolis Center
08:44PM 45.1145 -92.3256 70° East  Level FlightAware Approximate
08:44PM 45.1361 -92.7172 60° Northeast 376 433 13,000  Level Minneapolis Center
08:45PM 45.1519 -92.1760 70° East  Level FlightAware Approximate
08:46PM 45.1878 -92.5850 61° Northeast 385 443 15,200  Level Minneapolis Center
08:47PM 45.2406 -92.4500 61° Northeast 390 449 17,500 1,920 Climbing Minneapolis Center
08:48PM 45.2919 -92.3161 61° Northeast 387 445 19,200 1,680 Climbing Minneapolis Center
08:49PM 45.3208 -92.1608 75° East 408 470 21,000 1,620 Climbing Minneapolis Center
08:50PM 45.3233 -91.9997 89° East 412 474 22,600 1,500 Climbing Minneapolis Center
08:51PM 45.3108 -91.7994 95° East 423 487 24,200 1,320 Climbing Minneapolis Center
08:52PM 45.3011 -91.6328 95° East 425 489 25,400 1,080 Climbing Minneapolis Center
08:53PM 45.2900 -91.4608 95° East 433 498 26,500 960 Climbing Minneapolis Center
08:54PM 45.2783 -91.2867 95° East 440 506 27,500 960 Climbing Minneapolis Center
08:55PM 45.2658 -91.0958 95° East 446 513 28,500 960 Climbing Minneapolis Center
08:56PM 45.2536 -90.9194 96° East 450 518 29,500 840 Climbing Minneapolis Center
08:57PM 45.2425 -90.7442 95° East 449 517 30,300 840 Climbing Minneapolis Center
08:58PM 45.2300 -90.5675 96° East 451 519 31,300 1,200 Climbing Minneapolis Center
08:59PM 45.2158 -90.3614 96° East 441 507 32,900 1,140 Climbing Minneapolis Center
09:00PM 45.2039 -90.1936 96° East 433 498 33,700 720 Climbing Minneapolis Center
09:01PM 45.1911 -90.0281 96° East 427 491 34,400 600 Climbing Minneapolis Center
09:02PM 45.1786 -89.8608 96° East 427 491 35,000 240 Climbing Minneapolis Center
09:03PM 45.1656 -89.6922 96° East 430 495 35,000  Level Minneapolis Center
09:04PM 45.1483 -89.4847 97° East 443 510 35,000  Level Minneapolis Center
09:05PM 45.1311 -89.2767 97° East 446 513 35,000  Level Minneapolis Center
09:06PM 45.1167 -89.1042 97° East 443 510 35,000  Level Minneapolis Center
09:07PM 45.1028 -88.9286 96° East 449 517 35,000  Level Minneapolis Center
09:08PM 45.0881 -88.7514 97° East 453 521 35,000  Level Minneapolis Center
09:10PM 45.0714 -88.5603 97° East 460 529 35,000  Level Minneapolis Center
09:11PM 45.0550 -88.3794 97° East 463 533 35,000  Level Minneapolis Center
09:12PM 45.0378 -88.1992 98° East 463 533 35,000  Level Minneapolis Center
09:13PM 45.0181 -87.9822 97° East 466 536 35,000  Level Minneapolis Center
09:14PM 45.0014 -87.7997 97° East 468 539 35,000  Level Minneapolis Center
09:15PM 44.9833 -87.6172 98° East 469 540 35,000  Level Minneapolis Center
09:16PM 44.9656 -87.4331 98° East 473 544 35,000  Level Minneapolis Center
09:17PM 44.9475 -87.2503 98° East 473 544 35,000  Level Minneapolis Center
09:18PM 44.9289 -87.0642 98° East 477 549 35,000  Level Minneapolis Center
09:19PM 44.9061 -86.8411 98° East 479 551 35,000  Level Minneapolis Center
09:20PM 44.8850 -86.6542 99° East 482 555 35,000  Level Minneapolis Center
09:21PM 44.8650 -86.4669 99° East 484 557 35,000  Level Minneapolis Center
09:22PM 44.8444 -86.2808 99° East 481 554 35,000  Level Minneapolis Center
09:23PM 44.8244 -86.0942 99° East 482 555 35,000  Level Minneapolis Center
09:24PM 44.7997 -85.8706 99° East 482 555 35,000  Level Minneapolis Center
09:25PM 44.7789 -85.6839 99° East 482 555 35,000  Level Minneapolis Center
09:26PM 44.7556 -85.4819 99° East 483 556 35,000  Level Minneapolis Center
09:27PM 44.7336 -85.2969 99° East 483 556 35,000  Level Minneapolis Center
09:28PM 44.7075 -85.0750 99° East 480 552 35,000  Level Minneapolis Center
09:29PM 44.6847 -84.8911 100° East 479 551 35,000  Level Minneapolis Center
09:30PM 44.6622 -84.7086 100° East 477 549 35,000  Level Minneapolis Center
09:32PM 44.6400 -84.5211 99° East 485 558 35,000  Level Minneapolis Center
09:33PM 44.6122 -84.2958 100° East 488 562 35,000  Level Minneapolis Center
09:34PM 44.5867 -84.1094 101° East 488 562 35,000  Level Minneapolis Center
09:35PM 44.5575 -83.8853 100° East 488 562 35,000  Level Minneapolis Center
09:36PM 44.5278 -83.6628 101° East 487 560 35,000  Level Minneapolis Center
09:37PM 44.5047 -83.4783 100° East 483 556 35,000  Level Minneapolis Center
09:38PM 44.4792 -83.2922 101° East 486 559 35,000  Level Minneapolis Center
09:39PM 44.4550 -83.1081 100° East 485 558 35,000  Level Minneapolis Center
09:40PM 44.4286 -82.9239 101° East 483 556 35,000  Level Minneapolis Center
09:41PM 44.3972 -82.7039 101° East 483 556 35,000  Level Minneapolis Center
09:42PM 44.3719 -82.5197 101° East 483 556 35,000  Level Minneapolis Center
09:43PM 44.3456 -82.3381 101° East 481 554 35,000  Level Minneapolis Center
09:44PM 44.2667 -82.1000 115° Southeast 480 552 35,000  Level Toronto Center
09:45PM 44.2333 -81.9167 104° East 480 552 35,000  Level Toronto Center
09:46PM 44.2000 -81.7500 106° East 480 552 35,000  Level Toronto Center
09:47PM 44.1500 -81.5667 111° Southeast 480 552 35,000  Level Toronto Center
09:48PM 44.1000 -81.4000 113° Southeast 480 552 35,000  Level Toronto Center
09:49PM 44.0500 -81.2167 111° Southeast 480 552 35,000  Level Toronto Center
09:50PM 44.0167 -81.0500 105° East 480 552 35,000  Level Toronto Center
09:51PM 43.9667 -80.8667 111° Southeast 480 552 35,000  Level Toronto Center
09:52PM 43.9333 -80.7000 105° East 480 552 35,000  Level Toronto Center
09:53PM 43.8833 -80.5333 113° Southeast 480 552 35,000  Level Toronto Center
09:54PM 43.8500 -80.3500 104° East 480 552 35,000  Level Toronto Center
09:55PM 43.8000 -80.1833 113° Southeast 480 552 35,000  Level Toronto Center
09:56PM 43.7500 -80.0000 111° Southeast 470 541 35,000  Level Toronto Center
09:57PM 43.7000 -79.8333 112° Southeast 470 541 35,000  Level Toronto Center
09:58PM 43.6667 -79.6500 104° East 490 564 35,000  Level Toronto Center
09:59PM 43.6333 -79.4667 104° East 490 564 35,000  Level Toronto Center
10:00PM 43.6000 -79.2833 104° East 470 541 35,000  Level Toronto Center
10:01PM 43.5833 -79.1000 97° East 480 552 35,000  Level Toronto Center
10:02PM 43.5667 -78.9167 97° East 480 552 35,000  Level Toronto Center
10:03PM 43.5333 -78.7667 107° East 480 552 35,000  Level Toronto Center
10:04PM 43.5167 -78.5500 96° East 480 552 35,000  Level Toronto Center
10:05PM 43.4833 -78.4000 107° East 480 552 35,000 -240 Level Toronto Center
10:06PM 43.4500 -78.2167 104° East 480 552 34,600 -600 Descending Toronto Center
10:07PM 43.4333 -78.0333 97° East 470 541 33,800 -900 Descending Toronto Center
10:08PM 43.4000 -77.8667 105° East 480 552 32,800 -1,020 Descending Toronto Center
10:09PM 43.3833 -77.6667 96° East 480 552 31,800 -1,020 Descending Toronto Center
10:10PM 43.3500 -77.5000 105° East 490 564 30,800 -1,020 Descending Toronto Center
10:11PM 43.3167 -77.3000 103° East 480 552 29,800 -900 Descending Toronto Center
10:12PM 43.3000 -77.1333 98° East 480 552 29,000 -420 Descending Toronto Center
10:13PM 43.2667 -76.9333 103° East 480 552 29,000  Level Toronto Center
10:14PM 43.2500 -76.7667 98° East 480 552 29,000  Level Toronto Center
10:15PM 43.2167 -76.5833 104° East 480 552 29,000  Level Toronto Center
10:16PM 43.1833 -76.4167 105° East 470 541 29,000  Level Toronto Center
10:17PM 43.1667 -76.2333 97° East 470 541 29,000  Level Toronto Center
10:18PM 43.1167 -76.0500 110° East 480 552 29,000  Level Toronto Center
10:19PM 43.1000 -75.8833 98° East 480 552 29,000 -240 Level Toronto Center
10:20PM 43.0833 -75.6833 96° East 480 552 28,600 -1,320 Descending Toronto Center
10:21PM 43.0333 -75.5333 114° Southeast 480 552 26,400 -2,280 Descending Toronto Center
10:22PM 43.0167 -75.3667 98° East 460 529 24,100 -2,400 Descending Toronto Center
10:23PM 43.0000 -75.1833 97° East 450 518 21,700 -2,340 Descending Toronto Center
10:24PM 42.9500 -75.0333 114° Southeast 430 495 19,500 -2,340 Descending Toronto Center
10:25PM 42.9333 -74.8667 98° East 420 483 17,100 -2,220 Descending Toronto Center
10:26PM 42.9000 -74.7333 109° East 400 460 15,100 -2,040 Descending Toronto Center
10:27PM 42.8981 -74.6394 92° East 384 442 13,300 -1,920 Descending Boston Center
10:28PM 42.8881 -74.5089 96° East 343 395 11,500 -1,380 Descending Boston Center
10:29PM 42.8944 -74.3872 86° East 306 352 10,500 -1,620 Descending Boston Center
10:30PM 42.9025 -74.2797 84° East 276 318 8,300 -2,220 Descending Boston Center
10:31PM 42.9083 -74.1722 86° East 284 327 6,000 -2,340 Descending Boston Center
10:32PM 42.9139 -74.0703 86° East 275 316 3,600 -1,800 Descending Boston Center
10:33PM 42.9092 -73.9708 94° East 259 298 2,500 -600 Descending Boston Center
10:34PM 42.8831 -73.8881 113° Southeast 219 252 2,400 -300 Descending Boston Center
10:35PM 42.8503 -73.8306 128° Southeast 189 217 1,900 -600 Descending Boston Center
10:36PM 42.8131 -73.8100 158° South 168 193 1,300 -780 Descending Boston Center
10:37PM 42.7714 -73.8092 179° South 133 153 600 -720 Descending Boston Center